Time;durP1;ratioP1;P1;durP2;ratioP2;P2;SDS_P1;SDS_P2;PMS_P1;PMS_P2;Temp;Humidity;BMP_temperature;BMP_pressure;BME280_temperature;BME280_humidity;BME280_pressure;Samples;Min_cycle;Max_cycle;Signal;HPM_P1;HPM_P2
2022/03/16 00:00:32;;;;;;;117.47;51.00;;;1.70;90.00;;;;;;4155664;28;20325;-60
2022/03/16 00:02:33;;;;;;;122.23;51.20;;;1.80;90.20;;;;;;4157501;28;20301;-56
2022/03/16 00:04:35;;;;;;;114.37;50.57;;;1.80;90.00;;;;;;4156291;28;20271;-63
2022/03/16 00:06:36;;;;;;;115.23;50.93;;;1.70;89.90;;;;;;4157741;28;20407;-58
2022/03/16 00:08:37;;;;;;;107.50;48.97;;;1.70;90.20;;;;;;4155024;28;20266;-60
2022/03/16 00:10:38;;;;;;;121.03;50.17;;;1.60;91.10;;;;;;4157635;28;20263;-59
2022/03/16 00:12:41;;;;;;;121.23;50.10;;;1.60;90.90;;;;;;4154837;28;20373;-60
2022/03/16 00:14:42;;;;;;;102.63;44.20;;;1.50;91.20;;;;;;4156285;28;20298;-52
2022/03/16 00:16:43;;;;;;;92.83;43.37;;;1.40;90.80;;;;;;4155946;28;20321;-59
2022/03/16 00:18:45;;;;;;;105.77;45.43;;;1.40;90.70;;;;;;4156432;28;20279;-61
2022/03/16 00:20:48;;;;;;;105.30;42.07;;;1.40;90.60;;;;;;4156446;28;20643;-56
2022/03/16 00:22:49;;;;;;;112.77;47.27;;;1.40;90.60;;;;;;4156636;28;20393;-63
2022/03/16 00:24:50;;;;;;;109.63;44.33;;;1.40;90.20;;;;;;4156138;28;20279;-60
2022/03/16 00:26:51;;;;;;;94.90;43.70;;;1.30;90.40;;;;;;4156132;28;20329;-51
2022/03/16 00:28:53;;;;;;;107.00;45.73;;;1.30;90.40;;;;;;4156541;28;20344;-58
2022/03/16 00:30:54;;;;;;;108.70;45.47;;;1.30;90.50;;;;;;4152092;28;20837;-62
2022/03/16 00:32:55;;;;;;;107.13;44.40;;;1.20;90.80;;;;;;4156753;28;20380;-67
2022/03/16 00:34:56;;;;;;;100.67;43.33;;;1.10;91.90;;;;;;4155433;28;20274;-58
2022/03/16 00:36:57;;;;;;;95.20;43.87;;;1.00;92.30;;;;;;4156635;28;20740;-57
2022/03/16 00:38:58;;;;;;;105.23;44.50;;;0.80;92.90;;;;;;4156318;28;20270;-60
2022/03/16 00:41:01;;;;;;;100.33;42.77;;;0.80;93.20;;;;;;4157569;28;20282;-60
2022/03/16 00:43:02;;;;;;;105.10;44.07;;;0.70;93.50;;;;;;4155776;28;20765;-59
2022/03/16 00:45:03;;;;;;;104.90;43.50;;;0.60;93.50;;;;;;4156556;28;20274;-55
2022/03/16 00:47:05;;;;;;;101.47;42.70;;;0.50;94.80;;;;;;4154642;28;20303;-59
2022/03/16 00:49:08;;;;;;;94.57;40.60;;;0.50;94.50;;;;;;4156782;28;20356;-56
2022/03/16 00:51:09;;;;;;;92.17;39.30;;;0.40;95.70;;;;;;4156186;28;20298;-55
2022/03/16 00:53:11;;;;;;;91.40;38.17;;;0.30;95.80;;;;;;4156780;28;20387;-61
2022/03/16 00:55:13;;;;;;;98.13;39.50;;;0.20;96.00;;;;;;4156651;28;20336;-60
2022/03/16 00:57:14;;;;;;;90.40;41.13;;;0.20;96.50;;;;;;4156514;28;20310;-57
2022/03/16 00:59:15;;;;;;;94.53;39.33;;;0.20;96.30;;;;;;4155288;28;20290;-58
2022/03/16 01:01:16;;;;;;;95.33;40.20;;;0.20;96.90;;;;;;4155855;28;20354;-59
2022/03/16 01:03:18;;;;;;;90.00;40.10;;;0.10;96.60;;;;;;4156529;28;20915;-54
2022/03/16 01:05:19;;;;;;;95.50;39.10;;;0.10;96.80;;;;;;4155965;28;20432;-60
2022/03/16 01:07:20;;;;;;;87.97;36.73;;;0.10;97.20;;;;;;4157152;28;20317;-65
2022/03/16 01:09:22;;;;;;;91.60;37.90;;;0.10;96.80;;;;;;4155703;28;20356;-61
2022/03/16 01:11:23;;;;;;;89.93;36.97;;;0.10;96.70;;;;;;4157163;28;20697;-59
2022/03/16 01:13:24;;;;;;;92.87;39.27;;;0.10;97.30;;;;;;4157992;28;20298;-55
2022/03/16 01:15:25;;;;;;;88.77;36.13;;;0.10;98.30;;;;;;4159936;28;20270;-57
2022/03/16 01:17:26;;;;;;;78.60;33.93;;;0.00;98.30;;;;;;4158966;28;20608;-56
2022/03/16 01:19:29;;;;;;;69.20;30.43;;;0.00;99.10;;;;;;4159004;28;20333;-61
2022/03/16 01:21:31;;;;;;;75.77;32.53;;;0.20;98.60;;;;;;4158693;28;20303;-57
2022/03/16 01:23:34;;;;;;;66.93;29.33;;;0.40;97.40;;;;;;4159345;28;20392;-56
2022/03/16 01:25:35;;;;;;;73.17;29.70;;;0.50;96.40;;;;;;4158242;28;20282;-58
2022/03/16 01:27:36;;;;;;;67.47;29.30;;;0.60;96.30;;;;;;4157975;28;20291;-55
2022/03/16 01:29:37;;;;;;;69.60;28.33;;;0.80;96.10;;;;;;4159410;28;20293;-54
2022/03/16 01:31:38;;;;;;;64.77;29.13;;;0.80;95.60;;;;;;4158495;28;20271;-59
2022/03/16 01:33:39;;;;;;;57.90;26.80;;;0.90;95.30;;;;;;4158257;28;20294;-61
2022/03/16 01:35:41;;;;;;;62.50;28.03;;;1.00;94.70;;;;;;4157712;28;20997;-59
2022/03/16 01:37:45;;;;;;;59.73;26.60;;;1.10;94.30;;;;;;4158593;28;20314;-65
2022/03/16 01:39:46;;;;;;;62.37;27.00;;;1.20;93.80;;;;;;4158353;28;20269;-61
2022/03/16 01:41:48;;;;;;;60.03;26.63;;;1.20;94.10;;;;;;4159773;28;20978;-59
2022/03/16 01:43:56;;;;;;;54.13;25.70;;;1.20;93.60;;;;;;4158053;28;20266;-55
2022/03/16 01:45:57;;;;;;;59.33;25.37;;;1.30;93.60;;;;;;4159386;28;20266;-60
2022/03/16 01:47:58;;;;;;;53.60;25.20;;;1.30;93.30;;;;;;4139891;28;20656;-55
2022/03/16 01:50:01;;;;;;;51.77;24.80;;;1.30;93.00;;;;;;4159374;28;20332;-56
2022/03/16 01:52:03;;;;;;;49.30;23.57;;;1.40;92.70;;;;;;4156789;28;20271;-57
2022/03/16 01:54:06;;;;;;;53.07;23.63;;;1.40;92.30;;;;;;4158398;28;20852;-61
2022/03/16 01:56:09;;;;;;;48.47;22.97;;;1.60;91.90;;;;;;4157343;28;21115;-57
2022/03/16 01:58:10;;;;;;;50.50;23.73;;;1.70;91.50;;;;;;4157948;28;20278;-60
2022/03/16 02:00:12;;;;;;;46.67;23.20;;;1.70;91.10;;;;;;4157041;28;20821;-60
2022/03/16 02:02:13;;;;;;;49.50;24.13;;;1.80;90.90;;;;;;4158505;28;20279;-53
2022/03/16 02:04:14;;;;;;;49.83;24.23;;;1.80;90.80;;;;;;4157400;28;20309;-58
2022/03/16 02:06:16;;;;;;;50.27;22.73;;;1.70;90.70;;;;;;4157786;28;20270;-62
2022/03/16 02:08:18;;;;;;;54.33;23.70;;;1.70;90.70;;;;;;4157146;28;20620;-58
2022/03/16 02:10:20;;;;;;;51.80;25.00;;;1.70;90.70;;;;;;4155750;28;20317;-61
2022/03/16 02:12:22;;;;;;;50.73;22.73;;;1.70;90.60;;;;;;4156767;28;20271;-57
2022/03/16 02:14:23;;;;;;;54.77;24.13;;;1.70;90.60;;;;;;4157163;28;21058;-58
2022/03/16 02:16:25;;;;;;;48.50;24.30;;;1.70;90.50;;;;;;4159043;28;20279;-62
2022/03/16 02:18:26;;;;;;;53.30;23.97;;;1.70;90.40;;;;;;4157941;28;20275;-59
2022/03/16 02:20:27;;;;;;;43.23;23.73;;;1.70;90.30;;;;;;4159194;28;20266;-54
2022/03/16 02:22:33;;;;;;;43.43;23.10;;;1.80;90.20;;;;;;4157238;28;20767;-59
2022/03/16 02:24:34;;;;;;;48.93;23.30;;;1.80;90.00;;;;;;4158640;28;20275;-57
2022/03/16 02:26:35;;;;;;;45.30;22.87;;;1.80;90.00;;;;;;4157121;28;20279;-61
2022/03/16 02:28:36;;;;;;;47.90;23.33;;;1.80;89.90;;;;;;4158725;28;20723;-61
2022/03/16 02:30:37;;;;;;;45.87;21.53;;;1.70;89.90;;;;;;4157658;28;20340;-57
2022/03/16 02:32:39;;;;;;;50.80;24.43;;;1.70;89.70;;;;;;4158030;28;20278;-56
2022/03/16 02:34:40;;;;;;;47.87;23.73;;;1.70;89.80;;;;;;4157887;28;21088;-62
2022/03/16 02:36:41;;;;;;;49.57;23.47;;;1.70;89.70;;;;;;4157327;28;20283;-64
2022/03/16 02:38:42;;;;;;;47.07;23.33;;;1.70;89.70;;;;;;4158221;28;20317;-56
2022/03/16 02:40:44;;;;;;;51.60;23.03;;;1.70;89.60;;;;;;4156928;28;20275;-56
2022/03/16 02:42:45;;;;;;;44.57;22.50;;;1.70;89.50;;;;;;4158471;28;20743;-64
2022/03/16 02:44:46;;;;;;;46.40;23.07;;;1.70;89.30;;;;;;4156183;28;20762;-60
2022/03/16 02:46:47;;;;;;;45.33;23.70;;;1.70;89.10;;;;;;4157371;28;20278;-55
2022/03/16 02:48:49;;;;;;;47.70;22.47;;;1.70;88.90;;;;;;4157091;28;20368;-53
2022/03/16 02:50:50;;;;;;;52.77;23.90;;;1.80;88.70;;;;;;4157562;28;20267;-57
2022/03/16 02:52:52;;;;;;;44.07;23.03;;;1.80;88.60;;;;;;4157223;28;20321;-57
2022/03/16 02:54:53;;;;;;;53.87;23.57;;;1.80;88.60;;;;;;4158022;28;20278;-55
2022/03/16 02:56:54;;;;;;;52.73;23.20;;;1.70;88.50;;;;;;4156871;28;20600;-55
2022/03/16 02:58:56;;;;;;;46.80;22.97;;;1.70;88.50;;;;;;4157853;28;20279;-56
2022/03/16 03:00:57;;;;;;;46.80;22.57;;;1.70;88.50;;;;;;4155935;28;21051;-58
2022/03/16 03:02:58;;;;;;;52.37;22.73;;;1.70;88.40;;;;;;4157527;28;20263;-56
2022/03/16 03:04:59;;;;;;;45.37;22.43;;;1.70;88.40;;;;;;4157324;28;20305;-53
2022/03/16 03:07:00;;;;;;;48.90;24.03;;;1.70;88.40;;;;;;4157582;28;20282;-53
2022/03/16 03:09:01;;;;;;;46.90;23.47;;;1.70;88.30;;;;;;4157929;28;20266;-59
2022/03/16 03:11:03;;;;;;;44.40;22.87;;;1.70;88.10;;;;;;4157167;28;20329;-56
2022/03/16 03:13:04;;;;;;;44.10;22.07;;;1.70;88.00;;;;;;4157743;28;20356;-55
2022/03/16 03:15:09;;;;;;;44.70;22.33;;;1.70;87.60;;;;;;4155897;28;20267;-57
2022/03/16 03:17:11;;;;;;;46.40;22.53;;;1.80;87.60;;;;;;4157909;28;20310;-60
2022/03/16 03:19:12;;;;;;;54.07;23.80;;;1.80;87.50;;;;;;4156326;28;20774;-58
2022/03/16 03:21:13;;;;;;;47.50;22.07;;;1.80;87.40;;;;;;4157532;28;20328;-65
2022/03/16 03:23:14;;;;;;;49.30;23.03;;;1.70;87.40;;;;;;4156703;28;20270;-54
2022/03/16 03:25:15;;;;;;;50.03;23.87;;;1.80;87.20;;;;;;4157449;28;20336;-55
2022/03/16 03:27:16;;;;;;;48.53;23.77;;;1.80;87.20;;;;;;4156119;28;20332;-57
2022/03/16 03:29:18;;;;;;;49.07;23.33;;;1.80;87.30;;;;;;4157319;28;20275;-57
2022/03/16 03:31:19;;;;;;;50.47;23.37;;;1.80;87.20;;;;;;4155728;28;21084;-60
2022/03/16 03:33:20;;;;;;;49.50;24.03;;;1.80;87.10;;;;;;4156944;28;20290;-56
2022/03/16 03:35:21;;;;;;;52.63;22.37;;;1.80;87.20;;;;;;4156325;28;20279;-57
2022/03/16 03:37:25;;;;;;;54.90;24.20;;;1.80;87.20;;;;;;4157039;28;20282;-57
2022/03/16 03:39:26;;;;;;;49.13;23.33;;;1.80;87.10;;;;;;4156113;28;20332;-58
2022/03/16 03:41:27;;;;;;;49.47;24.40;;;1.80;87.10;;;;;;4156121;28;20287;-54
2022/03/16 03:43:28;;;;;;;52.60;23.80;;;1.70;87.10;;;;;;4157063;28;20270;-58
2022/03/16 03:45:31;;;;;;;51.77;23.40;;;1.80;87.00;;;;;;4156279;28;20735;-57
2022/03/16 03:47:32;;;;;;;49.97;23.83;;;1.80;87.00;;;;;;4157488;28;20282;-57
2022/03/16 03:49:36;;;;;;;49.07;23.97;;;1.80;87.10;;;;;;4156413;28;20266;-60
2022/03/16 03:51:37;;;;;;;53.57;24.47;;;1.70;87.20;;;;;;4157241;28;20832;-57
2022/03/16 03:53:38;;;;;;;49.17;24.30;;;1.80;87.40;;;;;;4156607;28;20693;-63
2022/03/16 03:55:39;;;;;;;48.03;23.90;;;1.70;87.20;;;;;;4157690;28;20332;-55
2022/03/16 03:57:40;;;;;;;51.57;23.20;;;1.80;87.10;;;;;;4155711;28;20350;-60
2022/03/16 03:59:41;;;;;;;51.73;23.97;;;1.80;87.10;;;;;;4139706;28;20378;-66
2022/03/16 04:01:43;;;;;;;46.90;23.73;;;1.80;87.00;;;;;;4156224;28;21145;-65
2022/03/16 04:03:44;;;;;;;45.87;22.43;;;1.70;87.00;;;;;;4156736;28;20685;-61
2022/03/16 04:05:45;;;;;;;48.20;23.80;;;1.70;87.30;;;;;;4155988;28;20600;-58
2022/03/16 04:07:48;;;;;;;56.30;26.23;;;1.70;87.20;;;;;;4157106;28;20267;-57
2022/03/16 04:09:50;;;;;;;51.47;24.07;;;1.70;87.20;;;;;;4156649;28;21394;-59
2022/03/16 04:11:51;;;;;;;47.90;23.43;;;1.70;87.30;;;;;;4155577;28;20694;-60
2022/03/16 04:13:52;;;;;;;50.77;24.67;;;1.70;87.30;;;;;;4156058;28;20759;-60
2022/03/16 04:15:54;;;;;;;48.97;23.63;;;1.70;87.40;;;;;;4155800;28;20274;-59
2022/03/16 04:17:55;;;;;;;47.57;23.07;;;1.70;87.40;;;;;;4157611;28;20325;-56
2022/03/16 04:19:56;;;;;;;49.90;23.00;;;1.70;87.40;;;;;;4156052;28;20301;-52
2022/03/16 04:21:57;;;;;;;49.60;24.70;;;1.70;87.30;;;;;;4156690;28;20337;-61
2022/03/16 04:23:58;;;;;;;52.87;24.37;;;1.60;87.30;;;;;;4156022;28;20761;-54
2022/03/16 04:26:00;;;;;;;49.63;23.43;;;1.70;87.40;;;;;;4156161;28;20275;-64
2022/03/16 04:28:01;;;;;;;49.07;24.33;;;1.60;87.40;;;;;;4155888;28;20833;-55
2022/03/16 04:30:03;;;;;;;53.47;25.17;;;1.60;87.50;;;;;;4156851;28;20340;-55
2022/03/16 04:32:04;;;;;;;54.10;24.77;;;1.60;87.70;;;;;;4155390;28;20255;-53
2022/03/16 04:34:06;;;;;;;51.70;23.70;;;1.60;87.60;;;;;;4154262;28;20298;-55
2022/03/16 04:36:08;;;;;;;53.30;25.00;;;1.60;87.50;;;;;;4137943;28;20283;-54
2022/03/16 04:38:09;;;;;;;52.83;24.47;;;1.60;87.60;;;;;;4155873;28;20290;-52
2022/03/16 04:40:11;;;;;;;55.13;26.13;;;1.70;87.60;;;;;;4138006;28;20329;-55
2022/03/16 04:42:12;;;;;;;55.03;25.87;;;1.70;87.50;;;;;;4155959;28;21234;-54
2022/03/16 04:44:14;;;;;;;50.57;25.30;;;1.70;87.30;;;;;;4155837;28;20360;-55
2022/03/16 04:46:16;;;;;;;57.17;25.07;;;1.70;87.30;;;;;;4155477;28;20612;-59
2022/03/16 04:48:17;;;;;;;51.40;24.33;;;1.70;87.10;;;;;;4131467;28;20272;-58
2022/03/16 04:50:18;;;;;;;50.67;25.93;;;1.70;87.20;;;;;;4158725;28;20266;-54
2022/03/16 04:52:19;;;;;;;52.37;26.33;;;1.70;87.00;;;;;;4160365;28;20258;-52
2022/03/16 04:54:21;;;;;;;49.50;24.57;;;1.70;87.10;;;;;;4157613;28;20307;-56
2022/03/16 04:56:22;;;;;;;54.77;24.90;;;1.70;87.30;;;;;;4159379;28;20778;-54
2022/03/16 04:58:23;;;;;;;61.80;26.63;;;1.70;87.30;;;;;;4158103;28;20279;-54
2022/03/16 05:00:24;;;;;;;59.57;25.77;;;1.70;87.40;;;;;;4159119;28;20282;-55
2022/03/16 05:02:25;;;;;;;49.17;23.50;;;1.70;87.50;;;;;;4158723;28;20283;-53
2022/03/16 05:04:27;;;;;;;55.43;25.30;;;1.60;87.40;;;;;;4158994;28;20308;-55
2022/03/16 05:06:28;;;;;;;60.50;26.73;;;1.60;87.60;;;;;;4158161;28;20329;-54
2022/03/16 05:08:29;;;;;;;51.83;25.63;;;1.60;87.60;;;;;;4158071;28;20654;-55
2022/03/16 05:10:31;;;;;;;57.40;27.63;;;1.60;87.80;;;;;;4158731;28;20332;-54
2022/03/16 05:12:39;;;;;;;48.57;25.30;;;1.60;88.10;;;;;;4158595;28;20340;-51
2022/03/16 05:14:40;;;;;;;52.80;26.23;;;1.50;88.20;;;;;;4156784;28;20364;-54
2022/03/16 05:16:42;;;;;;;55.83;24.87;;;1.50;88.10;;;;;;4158368;28;20325;-55
2022/03/16 05:18:45;;;;;;;56.77;26.83;;;1.50;88.20;;;;;;4159034;28;20360;-56
2022/03/16 05:20:46;;;;;;;51.80;25.37;;;1.50;88.60;;;;;;4157080;28;20329;-59
2022/03/16 05:22:49;;;;;;;54.67;24.77;;;1.50;88.60;;;;;;4158452;28;20271;-56
2022/03/16 05:24:50;;;;;;;54.10;25.57;;;1.50;88.50;;;;;;4158080;28;20278;-54
2022/03/16 05:26:52;;;;;;;60.17;26.73;;;1.50;88.60;;;;;;4158735;28;20734;-59
2022/03/16 05:28:54;;;;;;;54.57;23.83;;;1.50;88.80;;;;;;4157901;28;21030;-61
2022/03/16 05:30:55;;;;;;;56.93;25.57;;;1.50;89.60;;;;;;4158612;28;20332;-53
2022/03/16 05:33:00;;;;;;;61.87;26.67;;;1.50;88.80;;;;;;4147939;28;20361;-55
2022/03/16 05:35:02;;;;;;;55.43;25.40;;;1.50;89.20;;;;;;4154190;28;21163;-54
2022/03/16 05:37:03;;;;;;;52.93;24.10;;;1.50;89.10;;;;;;4157312;28;20710;-52
2022/03/16 05:39:04;;;;;;;59.47;27.50;;;1.50;88.90;;;;;;4157832;28;20283;-56
2022/03/16 05:41:06;;;;;;;58.70;26.93;;;1.60;88.90;;;;;;4157457;28;20251;-56
2022/03/16 05:43:08;;;;;;;50.27;25.83;;;1.60;88.80;;;;;;4157160;28;20317;-51
2022/03/16 05:45:10;;;;;;;55.90;26.20;;;1.60;89.40;;;;;;4157295;28;20274;-57
2022/03/16 05:47:14;;;;;;;52.70;24.67;;;1.70;88.90;;;;;;4158137;28;20333;-55
2022/03/16 05:49:15;;;;;;;52.10;23.90;;;1.70;88.70;;;;;;4158135;28;20356;-55
2022/03/16 05:51:16;;;;;;;60.47;25.07;;;1.70;88.80;;;;;;4157423;28;20282;-51
2022/03/16 05:53:17;;;;;;;57.43;27.20;;;1.60;88.60;;;;;;4158443;28;20283;-54
2022/03/16 05:55:18;;;;;;;57.57;25.27;;;1.70;88.70;;;;;;4157653;28;20349;-57
2022/03/16 05:57:20;;;;;;;50.57;23.93;;;1.70;89.30;;;;;;4167155;28;20344;-53
2022/03/16 05:59:21;;;;;;;61.73;26.17;;;1.70;88.70;;;;;;4172041;28;20344;-57
2022/03/16 06:01:22;;;;;;;58.90;28.10;;;1.70;88.90;;;;;;4160843;28;20782;-58
2022/03/16 06:03:23;;;;;;;56.63;25.77;;;1.70;88.80;;;;;;4156845;28;20352;-54
2022/03/16 06:05:25;;;;;;;65.43;27.63;;;1.70;88.90;;;;;;4158497;28;20600;-57
2022/03/16 06:07:26;;;;;;;66.50;27.87;;;1.70;88.70;;;;;;4157383;28;20777;-53
2022/03/16 06:09:27;;;;;;;56.57;26.97;;;1.70;88.60;;;;;;4158036;28;20274;-57
2022/03/16 06:11:29;;;;;;;59.93;26.47;;;1.80;88.50;;;;;;4156855;28;21247;-58
2022/03/16 06:13:30;;;;;;;78.77;34.57;;;1.80;88.40;;;;;;4157535;28;20279;-59
2022/03/16 06:15:42;;;;;;;98.73;41.23;;;1.90;88.30;;;;;;4156923;28;20400;-61
2022/03/16 06:17:43;;;;;;;132.70;54.17;;;1.90;88.70;;;;;;4156277;28;20271;-57
2022/03/16 06:19:44;;;;;;;93.33;40.37;;;2.00;88.30;;;;;;4157923;28;20258;-58
2022/03/16 06:21:45;;;;;;;73.10;32.90;;;2.00;88.00;;;;;;4157161;28;20258;-57
2022/03/16 06:23:46;;;;;;;75.97;31.07;;;2.10;88.30;;;;;;4158349;28;20275;-55
2022/03/16 06:25:47;;;;;;;66.90;30.57;;;2.10;87.80;;;;;;4156815;28;20672;-58
2022/03/16 06:27:48;;;;;;;72.60;30.70;;;2.20;87.70;;;;;;4157426;28;20271;-58
2022/03/16 06:29:50;;;;;;;83.17;35.60;;;2.20;87.50;;;;;;4156984;28;20275;-55
2022/03/16 06:31:51;;;;;;;65.43;29.33;;;2.20;87.50;;;;;;4157005;28;20309;-56
2022/03/16 06:33:52;;;;;;;67.73;26.73;;;2.30;87.30;;;;;;4156668;28;20285;-55
2022/03/16 06:35:53;;;;;;;58.07;25.40;;;2.30;87.20;;;;;;4158288;28;20287;-56
2022/03/16 06:37:54;;;;;;;71.57;29.43;;;2.30;87.60;;;;;;4156991;28;20755;-56
2022/03/16 06:39:55;;;;;;;72.83;30.07;;;2.40;86.70;;;;;;4157279;28;20345;-57
2022/03/16 06:41:56;;;;;;;77.63;29.80;;;2.40;86.30;;;;;;4157139;28;20270;-54
2022/03/16 06:43:57;;;;;;;73.93;31.67;;;2.40;86.00;;;;;;4157000;28;20340;-56
2022/03/16 06:45:59;;;;;;;64.97;26.80;;;2.30;86.00;;;;;;4157497;28;20298;-58
2022/03/16 06:48:01;;;;;;;63.63;27.13;;;2.40;85.70;;;;;;4156586;28;20958;-57
2022/03/16 06:50:03;;;;;;;57.43;27.53;;;2.40;85.70;;;;;;4139157;28;20283;-56
2022/03/16 06:52:05;;;;;;;61.30;27.97;;;2.40;85.50;;;;;;4156330;28;20737;-56
2022/03/16 06:54:06;;;;;;;58.07;26.27;;;2.40;85.70;;;;;;4157913;28;20290;-58
2022/03/16 06:56:08;;;;;;;61.90;27.37;;;2.40;85.40;;;;;;4155484;28;20300;-54
2022/03/16 06:58:09;;;;;;;58.97;25.67;;;2.40;85.60;;;;;;4158083;28;20332;-58
2022/03/16 07:00:13;;;;;;;55.70;27.43;;;2.40;85.50;;;;;;4156482;28;20321;-58
2022/03/16 07:02:14;;;;;;;63.67;27.70;;;2.40;85.40;;;;;;4157568;28;20317;-58
2022/03/16 07:04:15;;;;;;;61.90;28.03;;;2.40;85.30;;;;;;4139124;28;20651;-56
2022/03/16 07:06:16;;;;;;;60.27;28.60;;;2.50;85.50;;;;;;4157065;28;20279;-57
2022/03/16 07:08:17;;;;;;;59.63;29.53;;;2.50;85.50;;;;;;4139079;28;20621;-60
2022/03/16 07:10:20;;;;;;;73.37;30.13;;;2.60;85.60;;;;;;4157547;28;20333;-58
2022/03/16 07:12:28;;;;;;;84.40;31.83;;;2.60;85.40;;;;;;4155163;28;20279;-59
2022/03/16 07:14:32;;;;;;;73.60;31.20;;;2.70;85.30;;;;;;4157551;28;20282;-55
2022/03/16 07:16:34;;;;;;;72.93;30.43;;;2.70;85.10;;;;;;4156876;28;20352;-58
2022/03/16 07:18:35;;;;;;;64.07;29.90;;;2.70;85.00;;;;;;4156585;28;20324;-57
2022/03/16 07:20:37;;;;;;;66.93;28.50;;;2.70;85.00;;;;;;4155642;28;20342;-56
2022/03/16 07:22:39;;;;;;;64.30;29.27;;;2.60;85.60;;;;;;4155870;28;20278;-54
2022/03/16 07:24:40;;;;;;;66.80;28.90;;;2.60;85.30;;;;;;4157234;28;20317;-59
2022/03/16 07:26:42;;;;;;;60.00;28.07;;;2.60;85.20;;;;;;4157075;28;20270;-57
2022/03/16 07:28:43;;;;;;;62.43;27.97;;;2.60;85.40;;;;;;4156995;28;20263;-57
2022/03/16 07:30:45;;;;;;;57.00;28.20;;;2.60;85.40;;;;;;4155192;28;20282;-59
2022/03/16 07:32:47;;;;;;;56.00;26.90;;;2.60;85.40;;;;;;4156468;28;20336;-56
2022/03/16 07:34:48;;;;;;;70.53;29.47;;;2.60;85.40;;;;;;4155138;28;20348;-54
2022/03/16 07:36:50;;;;;;;56.33;26.27;;;2.70;85.40;;;;;;4156932;28;20768;-57
2022/03/16 07:38:51;;;;;;;57.67;28.30;;;2.70;85.50;;;;;;4156140;28;20755;-56
2022/03/16 07:40:52;;;;;;;69.77;29.73;;;2.70;85.50;;;;;;4156950;28;20336;-55
2022/03/16 07:42:53;;;;;;;71.40;28.93;;;2.60;85.80;;;;;;4154785;28;20376;-52
2022/03/16 07:44:54;;;;;;;60.70;28.17;;;2.50;86.00;;;;;;4156819;28;20271;-57
2022/03/16 07:46:55;;;;;;;69.10;27.17;;;2.50;86.20;;;;;;4155443;28;20282;-56
2022/03/16 07:48:56;;;;;;;59.30;25.77;;;2.40;86.10;;;;;;4155652;28;20263;-56
2022/03/16 07:50:57;;;;;;;53.53;27.57;;;2.40;86.60;;;;;;4155236;28;20809;-56
2022/03/16 07:52:59;;;;;;;66.77;31.00;;;2.40;86.60;;;;;;4156133;28;20316;-57
2022/03/16 07:55:00;;;;;;;65.87;28.33;;;2.50;86.20;;;;;;4155261;28;20303;-53
2022/03/16 07:57:01;;;;;;;58.80;28.03;;;2.50;86.40;;;;;;4156472;28;20270;-55
2022/03/16 07:59:03;;;;;;;54.80;27.13;;;2.50;86.50;;;;;;4156614;28;20306;-54
2022/03/16 08:01:04;;;;;;;54.37;26.60;;;2.60;86.50;;;;;;4155709;28;20313;-60
2022/03/16 08:03:06;;;;;;;61.03;27.00;;;2.60;86.00;;;;;;4155898;28;20316;-61
2022/03/16 08:05:08;;;;;;;53.60;27.10;;;2.60;85.90;;;;;;4137471;28;20306;-57
2022/03/16 08:07:09;;;;;;;67.40;27.27;;;2.70;86.00;;;;;;4157081;28;20266;-58
2022/03/16 08:09:10;;;;;;;63.43;26.60;;;2.70;85.90;;;;;;4155281;28;21129;-59
2022/03/16 08:11:12;;;;;;;65.57;26.30;;;2.70;85.70;;;;;;4157349;28;20418;-54
2022/03/16 08:13:13;;;;;;;64.67;27.40;;;2.70;85.80;;;;;;4154666;28;20254;-57
2022/03/16 08:15:14;;;;;;;57.13;26.33;;;2.70;85.80;;;;;;4157077;28;20785;-57
2022/03/16 08:17:16;;;;;;;66.17;29.03;;;2.70;85.70;;;;;;4155212;28;20301;-58
2022/03/16 08:19:19;;;;;;;59.33;27.17;;;2.80;85.80;;;;;;4156656;28;20286;-54
2022/03/16 08:21:20;;;;;;;76.57;30.60;;;2.80;85.90;;;;;;4156995;28;20275;-60
2022/03/16 08:23:22;;;;;;;66.03;27.93;;;2.70;86.00;;;;;;4159217;28;20279;-59
2022/03/16 08:25:24;;;;;;;64.93;28.93;;;2.80;86.00;;;;;;4159667;28;20712;-57
2022/03/16 08:27:25;;;;;;;63.37;27.50;;;2.80;86.70;;;;;;4158872;28;20267;-56
2022/03/16 08:29:26;;;;;;;70.30;27.83;;;2.80;86.00;;;;;;4159528;28;20321;-57
2022/03/16 08:31:28;;;;;;;74.00;29.43;;;2.80;86.30;;;;;;4158956;28;20742;-56
2022/03/16 08:33:29;;;;;;;64.63;29.93;;;2.80;86.70;;;;;;4159162;28;20286;-55
2022/03/16 08:35:30;;;;;;;61.53;29.13;;;2.80;87.50;;;;;;4158095;28;20302;-55
2022/03/16 08:37:31;;;;;;;70.93;30.37;;;2.80;87.60;;;;;;4159173;28;20685;-54
2022/03/16 08:39:32;;;;;;;59.07;29.57;;;2.70;88.70;;;;;;4157945;28;20266;-57
2022/03/16 08:41:33;;;;;;;64.97;30.03;;;2.70;89.20;;;;;;4160198;28;20749;-61
2022/03/16 08:43:34;;;;;;;69.67;30.00;;;2.70;89.90;;;;;;4158035;28;20329;-56
2022/03/16 08:45:36;;;;;;;64.80;29.67;;;2.80;90.50;;;;;;4160274;28;20321;-58
2022/03/16 08:47:37;;;;;;;68.50;28.83;;;2.70;91.30;;;;;;4157754;28;20305;-56
2022/03/16 08:49:38;;;;;;;61.27;29.80;;;2.70;91.40;;;;;;4159443;28;20274;-54
2022/03/16 08:51:40;;;;;;;66.13;28.43;;;2.70;91.70;;;;;;4159353;28;20262;-57
2022/03/16 08:53:41;;;;;;;62.43;30.53;;;2.70;92.10;;;;;;4158637;28;20818;-55
2022/03/16 08:55:42;;;;;;;66.40;30.03;;;2.70;92.60;;;;;;4158795;28;20360;-52
2022/03/16 08:57:44;;;;;;;77.93;33.50;;;2.70;92.00;;;;;;4158732;28;20278;-62
2022/03/16 08:59:45;;;;;;;72.53;32.20;;;2.80;93.50;;;;;;4159867;28;20313;-55
2022/03/16 09:01:46;;;;;;;71.37;32.80;;;2.80;94.00;;;;;;4158118;28;20336;-53
2022/03/16 09:03:47;;;;;;;70.43;32.77;;;2.90;95.00;;;;;;4158841;28;20758;-56
2022/03/16 09:05:49;;;;;;;68.40;33.33;;;2.80;96.40;;;;;;4157476;28;20274;-57
2022/03/16 09:07:50;;;;;;;70.73;33.33;;;2.80;97.30;;;;;;4159332;28;20340;-56
2022/03/16 09:09:51;;;;;;;75.67;36.27;;;2.70;99.00;;;;;;4157423;28;20274;-53
2022/03/16 09:11:52;;;;;;;85.07;38.27;;;2.70;99.20;;;;;;4158775;28;20345;-62
2022/03/16 09:13:53;;;;;;;76.60;34.10;;;2.70;99.90;;;;;;4158104;28;20352;-58
2022/03/16 09:15:56;;;;;;;76.70;36.87;;;2.60;99.90;;;;;;4158565;28;20303;-55
2022/03/16 09:17:57;;;;;;;77.73;34.27;;;2.50;99.90;;;;;;4158578;28;20298;-58
2022/03/16 09:19:59;;;;;;;66.50;32.13;;;2.50;99.90;;;;;;4158563;28;20274;-57
2022/03/16 09:22:02;;;;;;;67.67;34.07;;;2.40;99.90;;;;;;4158361;28;20719;-55
2022/03/16 09:24:04;;;;;;;72.73;33.60;;;2.40;99.90;;;;;;4157739;28;20278;-55
2022/03/16 09:26:06;;;;;;;78.27;34.87;;;2.30;99.90;;;;;;4158527;28;20263;-54
2022/03/16 09:28:08;;;;;;;74.70;33.40;;;2.30;99.90;;;;;;4140064;28;20271;-58
2022/03/16 09:30:10;;;;;;;71.50;32.50;;;2.20;99.90;;;;;;4159234;28;20309;-56
2022/03/16 09:32:12;;;;;;;71.90;31.47;;;2.10;99.90;;;;;;4156987;28;20274;-57
2022/03/16 09:34:13;;;;;;;70.33;33.33;;;2.10;99.90;;;;;;4158994;28;20279;-52
2022/03/16 09:36:14;;;;;;;71.93;35.50;;;2.00;99.90;;;;;;4157699;28;20291;-55
2022/03/16 09:38:16;;;;;;;80.57;36.73;;;2.00;99.90;;;;;;4158064;28;20833;-55
2022/03/16 09:40:17;;;;;;;81.17;38.33;;;2.00;99.90;;;;;;4157128;28;20275;-55
2022/03/16 09:42:20;;;;;;;84.97;38.37;;;2.00;99.90;;;;;;4158919;28;20336;-56
2022/03/16 09:44:22;;;;;;;68.90;33.53;;;2.00;99.90;;;;;;4157035;28;20739;-54
2022/03/16 09:46:31;;;;;;;75.87;36.40;;;1.90;99.90;;;;;;4157874;28;20287;-57
2022/03/16 09:48:32;;;;;;;73.17;35.50;;;1.90;99.90;;;;;;4156514;28;20337;-52
2022/03/16 09:50:34;;;;;;;79.57;36.90;;;1.80;99.90;;;;;;4158486;28;20275;-58
2022/03/16 09:52:35;;;;;;;79.00;35.27;;;1.80;99.90;;;;;;4156990;28;20282;-55
2022/03/16 09:54:36;;;;;;;76.20;37.67;;;1.80;99.90;;;;;;4157833;28;20415;-57
2022/03/16 09:56:38;;;;;;;73.70;38.03;;;1.90;99.90;;;;;;4157934;28;20753;-57
2022/03/16 09:58:44;;;;;;;82.77;38.47;;;1.90;99.90;;;;;;4157259;28;20278;-55
2022/03/16 10:00:46;;;;;;;77.03;37.23;;;1.90;99.90;;;;;;4158350;28;20435;-59
2022/03/16 10:02:48;;;;;;;76.77;37.70;;;1.90;99.90;;;;;;4157345;28;20271;-57
2022/03/16 10:04:49;;;;;;;79.37;37.83;;;1.90;99.90;;;;;;4158408;28;20270;-58
2022/03/16 10:06:50;;;;;;;83.50;37.73;;;1.90;99.90;;;;;;4157686;28;20290;-58
2022/03/16 10:13:34;;;;;;;78.30;38.10;;;2.10;99.90;;;;;;4157373;28;20836;-57
2022/03/16 10:15:36;;;;;;;71.13;34.93;;;2.20;99.90;;;;;;4156748;28;20287;-57
2022/03/16 10:17:45;;;;;;;76.80;37.10;;;2.20;99.90;;;;;;4157379;28;20661;-58
2022/03/16 10:19:49;;;;;;;78.00;37.93;;;2.20;99.90;;;;;;4157085;28;20313;-60
2022/03/16 10:22:01;;;;;;;79.70;39.27;;;2.20;99.90;;;;;;4158418;28;20262;-60
2022/03/16 10:24:02;;;;;;;77.03;36.87;;;2.30;99.90;;;;;;4156185;28;20259;-62
2022/03/16 10:26:04;;;;;;;82.57;39.13;;;2.30;99.90;;;;;;4157249;28;20278;-58
2022/03/16 10:28:11;;;;;;;71.03;36.07;;;2.30;99.90;;;;;;4156188;28;21017;-60